Time;durP1;ratioP1;P1;durP2;ratioP2;P2;SDS_P1;SDS_P2;PMS_P1;PMS_P2;Temp;Humidity;BMP_temperature;BMP_pressure;BME280_temperature;BME280_humidity;BME280_pressure;Samples;Min_cycle;Max_cycle;Signal;HPM_P1;HPM_P2
2022/11/27 00:01:09;;;;;;;51.75;21.67;;;3.50;99.90;;;;;;4750229;30;20048;-80
2022/11/27 00:03:36;;;;;;;50.45;21.95;;;3.60;99.90;;;;;;4741911;30;20056;-80
2022/11/27 00:06:03;;;;;;;51.53;21.40;;;3.50;99.90;;;;;;4735310;30;20111;-80
2022/11/27 00:08:30;;;;;;;65.55;24.40;;;3.50;99.90;;;;;;4737149;30;20067;-79
2022/11/27 00:11:07;;;;;;;51.38;20.55;;;3.60;99.90;;;;;;4737974;30;20123;-79
2022/11/27 00:13:34;;;;;;;55.33;22.60;;;3.50;99.90;;;;;;4722997;30;20102;-79
2022/11/27 00:16:03;;;;;;;56.75;23.35;;;3.60;99.90;;;;;;4734940;30;20056;-79
2022/11/27 00:18:30;;;;;;;53.25;22.33;;;3.60;99.90;;;;;;4750443;30;20074;-79
2022/11/27 00:21:06;;;;;;;56.10;22.52;;;3.60;99.90;;;;;;4738037;30;20040;-79
2022/11/27 00:23:33;;;;;;;53.75;22.88;;;3.60;99.90;;;;;;4734952;30;20040;-79
2022/11/27 00:26:01;;;;;;;56.83;23.33;;;3.60;99.90;;;;;;4749573;30;20058;-79
2022/11/27 00:28:29;;;;;;;58.35;22.52;;;3.70;99.90;;;;;;4738353;30;20061;-79
2022/11/27 00:31:27;;;;;;;49.65;20.63;;;3.60;99.90;;;;;;4739869;30;20129;-80
2022/11/27 00:33:55;;;;;;;52.03;20.85;;;3.60;99.90;;;;;;4736865;30;20056;-80
2022/11/27 00:36:22;;;;;;;48.80;19.13;;;3.60;99.90;;;;;;4748720;30;20134;-80
2022/11/27 00:38:50;;;;;;;51.33;22.33;;;3.60;99.90;;;;;;4735238;30;20066;-80
2022/11/27 00:41:23;;;;;;;56.78;21.95;;;4.60;99.90;;;;;;4751034;30;20072;-80
2022/11/27 00:43:50;;;;;;;;;;;3.60;99.90;;;;;;4750337;30;20076;-80
2022/11/27 00:46:20;;;;;;;48.97;19.13;;;3.60;99.90;;;;;;4736028;30;19969;-80
2022/11/27 00:48:54;;;;;;;45.03;20.05;;;3.60;99.90;;;;;;4737013;30;20412;-80
2022/11/27 00:51:23;;;;;;;48.78;19.25;;;3.60;99.90;;;;;;4750070;30;20056;-80
2022/11/27 00:53:51;;;;;;;48.42;20.65;;;3.50;99.90;;;;;;4733871;30;20078;-80
2022/11/27 00:56:22;;;;;;;46.40;20.85;;;3.60;99.90;;;;;;4748507;30;20059;-80
2022/11/27 00:58:49;;;;;;;48.67;20.45;;;3.60;99.90;;;;;;4738114;30;20056;-80
2022/11/27 01:01:23;;;;;;;50.97;21.45;;;4.00;99.90;;;;;;4734825;30;20496;-80
2022/11/27 01:03:50;;;;;;;48.78;21.25;;;3.70;99.90;;;;;;4721389;30;20140;-79
2022/11/27 01:06:19;;;;;;;53.65;21.00;;;3.70;99.90;;;;;;4735128;30;20102;-80
2022/11/27 01:08:47;;;;;;;54.05;20.70;;;3.70;99.90;;;;;;4733371;30;20067;-80
2022/11/27 01:11:21;;;;;;;54.38;20.98;;;3.70;99.90;;;;;;4733524;30;20516;-79
2022/11/27 01:13:48;;;;;;;53.42;20.25;;;3.70;99.90;;;;;;4747510;30;20489;-79
2022/11/27 01:16:21;;;;;;;53.58;21.45;;;3.70;99.90;;;;;;4718035;30;20065;-79
2022/11/27 01:18:50;;;;;;;53.78;20.85;;;3.70;99.90;;;;;;4735094;30;20125;-80
2022/11/27 01:21:19;;;;;;;47.53;21.13;;;3.80;99.90;;;;;;4745886;30;20053;-79
2022/11/27 01:23:48;;;;;;;54.28;21.30;;;3.70;99.90;;;;;;4746388;30;20063;-79
2022/11/27 01:26:16;;;;;;;53.58;22.30;;;3.70;99.90;;;;;;4744313;30;20041;-79
2022/11/27 01:28:43;;;;;;;58.85;23.52;;;3.80;99.90;;;;;;4731819;30;20139;-80
2022/11/27 01:31:16;;;;;;;55.67;21.73;;;3.90;99.90;;;;;;4735618;30;20060;-80
2022/11/27 01:33:45;;;;;;;60.88;24.15;;;3.80;99.90;;;;;;4747439;30;20056;-80
2022/11/27 01:36:14;;;;;;;59.47;23.15;;;3.80;99.90;;;;;;4744145;30;20056;-80
2022/11/27 01:38:42;;;;;;;68.45;23.65;;;3.80;99.90;;;;;;4735600;30;20744;-80
2022/11/27 01:41:19;;;;;;;61.67;23.40;;;3.80;99.90;;;;;;4734926;30;20493;-80
2022/11/27 01:43:50;;;;;;;62.60;23.85;;;3.80;99.90;;;;;;4745659;30;20052;-80
2022/11/27 01:46:33;;;;;;;53.83;21.25;;;3.80;99.90;;;;;;4728962;30;20418;-80
2022/11/27 01:49:09;;;;;;;54.15;22.80;;;3.80;99.90;;;;;;4733955;30;20052;-80
2022/11/27 01:52:06;;;;;;;61.53;22.55;;;3.80;99.90;;;;;;4731992;30;20075;-80
2022/11/27 01:54:51;;;;;;;61.90;24.48;;;3.80;99.90;;;;;;4725413;30;20064;-80
2022/11/27 01:57:23;;;;;;;56.00;22.42;;;3.80;99.90;;;;;;4718319;30;20058;-79
2022/11/27 01:59:52;;;;;;;66.57;23.98;;;3.80;99.90;;;;;;4730341;30;20076;-79
2022/11/27 02:02:19;;;;;;;67.03;24.15;;;3.90;99.90;;;;;;4731853;30;20072;-79
2022/11/27 02:04:46;;;;;;;56.78;22.60;;;3.90;99.90;;;;;;4730698;30;20052;-80
2022/11/27 02:07:13;;;;;;;63.78;22.67;;;4.10;99.90;;;;;;4716852;30;20102;-80
2022/11/27 02:09:41;;;;;;;59.88;22.65;;;3.90;99.90;;;;;;4719928;30;20056;-80
2022/11/27 02:12:27;;;;;;;54.75;22.10;;;3.90;99.90;;;;;;4745727;30;20080;-80
2022/11/27 02:15:05;;;;;;;57.83;21.88;;;3.90;99.90;;;;;;4731068;30;20143;-80
2022/11/27 02:17:45;;;;;;;68.82;23.52;;;3.90;99.90;;;;;;4732368;30;20052;-80
2022/11/27 02:20:18;;;;;;;64.60;25.20;;;3.90;99.90;;;;;;4744079;30;20060;-80
2022/11/27 02:23:00;;;;;;;71.50;24.50;;;3.90;99.90;;;;;;4731260;30;20048;-80
2022/11/27 02:25:48;;;;;;;65.10;22.80;;;3.90;99.90;;;;;;4718574;30;20048;-80
2022/11/27 02:28:28;;;;;;;60.28;23.83;;;3.90;99.90;;;;;;4717803;30;20409;-80
2022/11/27 02:31:02;;;;;;;65.82;24.88;;;3.90;99.90;;;;;;4713469;30;20100;-79
2022/11/27 02:33:34;;;;;;;61.67;23.63;;;3.90;99.90;;;;;;4732675;30;20139;-79
2022/11/27 02:36:09;;;;;;;65.43;24.38;;;3.90;99.90;;;;;;4729520;30;20114;-80
2022/11/27 02:38:45;;;;;;;85.10;30.58;;;3.90;99.90;;;;;;4745079;30;21743;-79
2022/11/27 02:41:18;;;;;;;105.20;34.55;;;3.90;99.90;;;;;;4713380;30;20524;-80
2022/11/27 02:43:49;;;;;;;98.40;31.48;;;3.90;99.90;;;;;;4744095;30;20071;-80
2022/11/27 02:46:17;;;;;;;87.40;28.65;;;3.90;99.90;;;;;;4727191;30;20071;-79
2022/11/27 02:48:55;;;;;;;71.07;26.10;;;4.00;99.90;;;;;;4733923;30;20059;-79
2022/11/27 02:51:27;;;;;;;74.53;27.17;;;3.90;99.90;;;;;;4745343;30;20104;-79
2022/11/27 02:54:02;;;;;;;74.30;28.27;;;4.00;99.90;;;;;;4729116;30;20056;-79
2022/11/27 02:56:31;;;;;;;63.58;23.92;;;3.90;99.90;;;;;;4744632;30;20067;-80
2022/11/27 02:59:01;;;;;;;60.47;23.70;;;3.90;99.90;;;;;;4734579;30;20164;-80
2022/11/27 03:01:34;;;;;;;61.55;23.67;;;4.00;99.90;;;;;;4731008;30;20043;-80
2022/11/27 03:04:07;;;;;;;61.08;23.42;;;3.90;99.90;;;;;;4749927;30;20048;-80
2022/11/27 03:06:47;;;;;;;59.03;23.08;;;4.00;99.90;;;;;;4732838;30;20056;-80
2022/11/27 03:09:21;;;;;;;54.75;22.48;;;4.00;99.90;;;;;;4731677;30;20628;-80
2022/11/27 03:11:49;;;;;;;61.15;24.58;;;3.90;99.90;;;;;;4743999;30;20052;-80
2022/11/27 03:14:16;;;;;;;58.10;22.40;;;3.90;99.90;;;;;;4731048;30;20048;-80
2022/11/27 03:17:06;;;;;;;60.35;23.38;;;3.90;99.90;;;;;;4717393;30;20479;-80
2022/11/27 03:19:52;;;;;;;63.88;23.40;;;3.90;99.90;;;;;;4711693;30;20071;-80
2022/11/27 03:22:19;;;;;;;61.03;24.23;;;3.90;99.90;;;;;;4747594;30;20045;-80
2022/11/27 03:24:48;;;;;;;68.95;24.10;;;4.00;99.90;;;;;;4717640;30;20178;-80
2022/11/27 03:27:21;;;;;;;59.70;23.05;;;4.00;99.90;;;;;;4730612;30;20044;-80
2022/11/27 03:29:56;;;;;;;65.63;25.00;;;4.00;99.90;;;;;;4746569;30;20064;-79
2022/11/27 03:32:25;;;;;;;66.15;25.98;;;4.00;99.90;;;;;;4748485;30;20096;-80
2022/11/27 03:34:53;;;;;;;61.60;23.65;;;4.00;99.90;;;;;;4731190;30;20049;-80
2022/11/27 03:37:21;;;;;;;68.22;24.77;;;4.00;99.90;;;;;;4732289;30;20517;-80
2022/11/27 03:39:49;;;;;;;60.13;23.55;;;4.00;99.90;;;;;;4744889;30;20055;-79
2022/11/27 03:42:46;;;;;;;60.20;22.13;;;4.00;99.90;;;;;;4743728;30;20068;-79
2022/11/27 03:45:29;;;;;;;65.03;23.00;;;4.00;99.90;;;;;;4729157;30;20048;-79
2022/11/27 03:48:01;;;;;;;62.67;23.43;;;4.00;99.90;;;;;;4746381;30;20048;-79
2022/11/27 03:50:28;;;;;;;61.45;23.38;;;4.10;99.90;;;;;;4744227;30;20309;-79
2022/11/27 03:53:07;;;;;;;58.90;23.92;;;4.00;99.90;;;;;;4717888;30;20118;-80
2022/11/27 03:55:49;;;;;;;58.97;22.70;;;4.00;99.90;;;;;;4748709;30;20502;-80
2022/11/27 03:58:28;;;;;;;64.20;23.92;;;4.00;99.90;;;;;;4728927;30;20049;-80
2022/11/27 04:00:59;;;;;;;62.13;23.20;;;4.00;99.90;;;;;;4727817;30;20121;-80
2022/11/27 04:03:29;;;;;;;64.80;23.17;;;4.10;99.90;;;;;;4734131;30;20075;-79
2022/11/27 04:05:57;;;;;;;63.88;23.38;;;4.10;99.90;;;;;;4746707;30;20049;-80
2022/11/27 04:08:24;;;;;;;60.90;23.50;;;4.10;99.90;;;;;;4746189;30;20540;-80
2022/11/27 04:10:51;;;;;;;60.05;23.15;;;4.10;99.90;;;;;;4729373;30;20065;-80
2022/11/27 04:13:18;;;;;;;62.60;24.10;;;4.00;99.90;;;;;;4746458;30;20048;-80
2022/11/27 04:15:45;;;;;;;71.43;24.63;;;4.10;99.90;;;;;;4729234;30;20187;-80
2022/11/27 04:18:12;;;;;;;67.63;23.83;;;4.10;99.90;;;;;;4731000;30;20169;-80
2022/11/27 04:20:39;;;;;;;53.55;21.23;;;4.00;99.90;;;;;;4744814;30;20051;-80
2022/11/27 04:23:06;;;;;;;57.75;22.10;;;4.10;99.90;;;;;;4728819;30;20052;-80
2022/11/27 04:25:33;;;;;;;65.68;24.70;;;4.10;99.90;;;;;;4744697;30;20105;-80
2022/11/27 04:28:00;;;;;;;55.65;22.38;;;4.10;99.90;;;;;;4744737;30;20098;-80
2022/11/27 04:30:27;;;;;;;59.72;22.33;;;4.10;99.90;;;;;;4746105;30;20048;-79
2022/11/27 04:32:54;;;;;;;62.58;23.02;;;4.20;99.90;;;;;;4731789;30;20059;-79
2022/11/27 04:35:21;;;;;;;57.10;23.00;;;4.20;99.90;;;;;;4744936;30;20078;-79
2022/11/27 04:37:48;;;;;;;63.97;22.58;;;4.10;99.90;;;;;;4742778;30;20147;-79
2022/11/27 04:40:15;;;;;;;65.05;25.35;;;4.10;99.90;;;;;;4743725;30;20045;-79
2022/11/27 04:42:42;;;;;;;54.65;22.65;;;4.10;99.90;;;;;;4742210;30;20110;-79
2022/11/27 04:45:10;;;;;;;61.83;23.45;;;4.60;99.90;;;;;;4746191;30;20512;-79
2022/11/27 04:47:37;;;;;;;67.45;24.60;;;4.10;99.90;;;;;;4736559;30;20056;-79
2022/11/27 04:50:05;;;;;;;62.20;23.75;;;4.10;99.90;;;;;;4734641;30;20083;-79
2022/11/27 04:52:32;;;;;;;65.05;24.02;;;4.10;99.90;;;;;;4732763;30;20140;-79
2022/11/27 04:54:59;;;;;;;65.57;24.65;;;4.10;99.90;;;;;;4749407;30;20113;-79
2022/11/27 04:57:27;;;;;;;62.85;23.40;;;4.10;99.90;;;;;;4747588;30;20215;-79
2022/11/27 04:59:54;;;;;;;58.38;21.85;;;4.20;99.90;;;;;;4719341;30;20129;-79
2022/11/27 05:02:21;;;;;;;56.20;21.08;;;4.20;99.90;;;;;;4747485;30;20044;-79
2022/11/27 05:04:48;;;;;;;54.75;22.40;;;4.20;99.90;;;;;;4733903;30;20098;-79
2022/11/27 05:07:15;;;;;;;52.47;21.65;;;4.20;99.90;;;;;;4721862;30;20475;-79
2022/11/27 05:09:42;;;;;;;51.47;21.85;;;4.20;99.90;;;;;;4746718;30;20055;-79
2022/11/27 05:12:09;;;;;;;62.08;23.85;;;4.20;99.90;;;;;;4742053;30;20052;-79
2022/11/27 05:14:36;;;;;;;60.00;22.75;;;4.20;99.90;;;;;;4716272;30;20114;-79
2022/11/27 05:17:03;;;;;;;56.15;22.80;;;4.20;99.90;;;;;;4745078;30;20053;-79
2022/11/27 05:19:30;;;;;;;67.80;24.92;;;4.20;99.90;;;;;;4719727;30;20448;-80
2022/11/27 05:21:58;;;;;;;55.13;22.92;;;4.20;99.90;;;;;;4730203;30;20052;-80
2022/11/27 05:24:27;;;;;;;54.83;22.75;;;4.20;99.90;;;;;;4732632;30;20459;-80
2022/11/27 05:26:55;;;;;;;65.03;23.48;;;4.20;99.90;;;;;;4732686;30;20145;-80
2022/11/27 05:29:23;;;;;;;56.42;22.95;;;4.20;99.90;;;;;;4731089;30;20048;-80
2022/11/27 05:31:51;;;;;;;63.33;23.13;;;4.20;99.90;;;;;;4732316;30;20056;-80
2022/11/27 05:34:18;;;;;;;63.08;24.65;;;4.20;99.90;;;;;;4732197;30;20063;-80
2022/11/27 05:36:46;;;;;;;64.18;25.20;;;4.40;99.90;;;;;;4718976;30;20570;-80
2022/11/27 05:39:13;;;;;;;66.40;24.83;;;4.20;99.90;;;;;;4734043;30;20056;-80
2022/11/27 05:41:41;;;;;;;58.13;24.23;;;4.20;99.90;;;;;;4745673;30;20105;-80
2022/11/27 05:44:12;;;;;;;72.43;24.70;;;4.20;99.90;;;;;;4731334;30;20057;-80
2022/11/27 05:46:42;;;;;;;58.13;24.27;;;4.20;99.90;;;;;;4731028;30;20501;-80
2022/11/27 05:49:12;;;;;;;63.15;23.52;;;4.20;99.90;;;;;;4727720;30;20083;-80
2022/11/27 05:51:39;;;;;;;56.38;23.48;;;4.20;99.90;;;;;;4735285;30;20056;-80
2022/11/27 05:54:06;;;;;;;63.15;24.75;;;4.20;99.90;;;;;;4718827;30;20094;-80
2022/11/27 05:56:33;;;;;;;63.97;26.13;;;4.20;99.90;;;;;;4731124;30;20412;-80
2022/11/27 05:59:00;;;;;;;68.35;25.40;;;4.30;99.90;;;;;;4732193;30;20056;-80
2022/11/27 06:01:27;;;;;;;66.20;25.20;;;4.20;99.90;;;;;;4732976;30;20588;-80
2022/11/27 06:03:54;;;;;;;68.40;25.70;;;4.20;99.90;;;;;;4748072;30;20044;-80
2022/11/27 06:06:21;;;;;;;63.97;24.52;;;4.30;99.90;;;;;;4727372;30;20068;-80
2022/11/27 06:08:49;;;;;;;84.35;31.50;;;4.30;99.90;;;;;;4744631;30;20071;-80
2022/11/27 06:11:20;;;;;;;72.93;26.45;;;4.30;99.90;;;;;;4730899;30;20049;-80
2022/11/27 06:13:48;;;;;;;64.07;26.70;;;4.30;99.90;;;;;;4746678;30;20052;-79
2022/11/27 06:16:18;;;;;;;62.97;25.45;;;4.30;99.90;;;;;;4745675;30;20113;-79
2022/11/27 06:18:49;;;;;;;67.25;28.20;;;4.30;99.90;;;;;;4748632;30;20054;-79
2022/11/27 06:21:17;;;;;;;68.93;26.60;;;4.30;99.90;;;;;;4744123;30;20047;-79
2022/11/27 06:23:45;;;;;;;64.88;24.70;;;4.30;99.90;;;;;;4746590;30;20858;-79
2022/11/27 06:26:21;;;;;;;64.07;26.80;;;4.40;99.90;;;;;;4730268;30;20052;-80
2022/11/27 06:28:50;;;;;;;61.20;25.10;;;4.30;99.90;;;;;;4743254;30;20083;-80
2022/11/27 06:31:23;;;;;;;62.35;26.92;;;4.30;99.90;;;;;;4720108;30;20060;-80
2022/11/27 06:33:52;;;;;;;66.65;24.55;;;4.40;99.90;;;;;;4716998;30;20052;-80
2022/11/27 06:36:20;;;;;;;66.10;25.70;;;4.30;99.90;;;;;;4746808;30;20496;-80
2022/11/27 06:38:47;;;;;;;76.43;25.67;;;4.50;99.90;;;;;;4744802;30;20048;-80
2022/11/27 06:41:17;;;;;;;58.78;23.80;;;4.40;99.90;;;;;;4746489;30;20048;-80
2022/11/27 06:43:44;;;;;;;62.75;26.15;;;4.40;99.90;;;;;;4726923;30;20144;-80
2022/11/27 06:46:14;;;;;;;59.72;23.92;;;4.50;99.90;;;;;;4732681;30;20113;-80
2022/11/27 06:48:43;;;;;;;66.80;24.40;;;4.40;99.90;;;;;;4745672;30;20118;-80
2022/11/27 06:51:13;;;;;;;66.38;23.90;;;4.50;99.90;;;;;;4733196;30;20131;-80
2022/11/27 06:53:40;;;;;;;60.30;23.13;;;4.40;99.90;;;;;;4742930;30;20044;-80
2022/11/27 06:56:13;;;;;;;60.22;21.02;;;4.40;99.90;;;;;;4734609;30;20094;-80
2022/11/27 06:58:40;;;;;;;65.10;23.15;;;4.50;99.90;;;;;;4730946;30;20457;-80
2022/11/27 07:01:13;;;;;;;58.42;23.02;;;4.50;99.90;;;;;;4734104;30;20097;-80
2022/11/27 07:03:40;;;;;;;61.38;21.48;;;4.50;99.90;;;;;;4725526;30;20413;-79
2022/11/27 07:06:10;;;;;;;56.55;19.98;;;4.50;99.90;;;;;;4731766;30;20052;-79
2022/11/27 07:08:38;;;;;;;51.65;18.70;;;4.50;99.90;;;;;;4734867;30;20669;-79
2022/11/27 07:11:13;;;;;;;60.10;20.92;;;5.00;99.90;;;;;;4743134;30;20065;-80
2022/11/27 07:13:40;;;;;;;66.63;23.15;;;4.50;99.90;;;;;;4743368;30;20052;-80
2022/11/27 07:16:10;;;;;;;67.82;24.33;;;4.50;99.90;;;;;;4730275;30;20119;-80
2022/11/27 07:18:40;;;;;;;75.25;25.15;;;4.50;99.90;;;;;;4747197;30;20052;-80
2022/11/27 07:21:07;;;;;;;68.72;23.42;;;4.50;99.90;;;;;;4743530;30;20381;-80
2022/11/27 07:31:34;;;;;;;81.45;25.48;;;4.40;99.90;;;;;;4764465;30;20046;-88
2022/11/27 07:34:15;;;;;;;83.90;27.33;;;4.30;99.90;;;;;;4770953;30;20116;-88
2022/11/27 07:37:09;;;;;;;73.78;25.33;;;4.40;99.90;;;;;;4759445;30;20048;-88
2022/11/27 07:40:17;;;;;;;74.88;25.90;;;4.30;99.90;;;;;;4747990;30;20036;-88
2022/11/27 07:43:59;;;;;;;68.93;24.38;;;4.60;99.90;;;;;;4727871;30;20062;-88
2022/11/27 07:55:21;;;;;;;62.17;22.00;;;5.10;99.90;;;;;;5058600;24;20055;-87
2022/11/27 08:02:13;;;;;;;61.08;21.63;;;4.80;99.90;;;;;;4805461;29;20035;-89
2022/11/27 08:08:41;;;;;;;62.15;22.40;;;4.80;99.90;;;;;;4801339;29;20065;-88
2022/11/27 08:11:34;;;;;;;63.22;22.77;;;4.70;99.90;;;;;;4769354;30;20048;-88
2022/11/27 08:14:44;;;;;;;58.83;20.95;;;4.60;99.90;;;;;;4731579;30;20053;-89
2022/11/27 08:31:26;;;;;;;51.38;18.90;;;4.40;99.90;;;;;;4735428;30;20057;-89
2022/11/27 08:34:35;;;;;;;50.67;17.60;;;4.90;99.90;;;;;;4666368;30;20054;-88
2022/11/27 08:37:50;;;;;;;45.75;17.80;;;5.00;99.90;;;;;;4659848;30;20034;-89
2022/11/27 08:45:09;;;;;;;47.65;16.88;;;4.90;99.90;;;;;;4681793;30;20218;-89
2022/11/27 08:48:28;;;;;;;49.40;17.00;;;5.10;99.90;;;;;;4616700;30;20061;-90
2022/11/27 08:51:25;;;;;;;52.20;17.92;;;5.30;99.90;;;;;;4628295;30;20040;-89
2022/11/27 08:54:59;;;;;;;43.20;16.67;;;5.00;99.90;;;;;;4623710;31;20036;-89
2022/11/27 09:03:12;;;;;;;45.97;18.65;;;5.40;99.90;;;;;;4618136;31;20104;-89
2022/11/27 09:06:56;;;;;;;52.67;17.75;;;5.30;99.90;;;;;;4563729;31;20044;-88
2022/11/27 09:10:26;;;;;;;58.75;18.80;;;4.30;99.90;;;;;;4587712;31;20053;-89
2022/11/27 09:18:29;;;;;;;48.38;17.17;;;5.40;99.90;;;;;;4570467;31;20037;-89
2022/11/27 09:22:10;;;;;;;47.72;16.33;;;5.50;99.90;;;;;;4553197;31;20050;-90
2022/11/27 09:25:05;;;;;;;;;;;5.50;99.90;;;;;;4533257;31;20103;-89
2022/11/27 09:28:22;;;;;;;51.05;18.23;;;5.30;99.90;;;;;;4535442;31;19945;-89
2022/11/27 09:31:35;;;;;;;61.58;18.95;;;5.60;99.90;;;;;;4561584;31;20049;-90
2022/11/27 09:35:34;;;;;;;58.20;19.42;;;5.50;99.90;;;;;;4604062;31;20039;-89
2022/11/27 09:48:39;;;;;;;58.35;17.85;;;5.50;99.90;;;;;;4600444;31;20072;-89
2022/11/27 09:52:28;;;;;;;60.65;20.23;;;5.50;99.90;;;;;;4617509;30;20056;-90
2022/11/27 10:13:10;;;;;;;67.93;18.45;;;5.50;99.90;;;;;;4770333;30;20052;-90
2022/11/27 10:26:03;;;;;;;75.80;22.30;;;5.50;99.90;;;;;;4686807;30;20134;-89
2022/11/27 10:29:35;;;;;;;67.57;21.75;;;5.40;99.90;;;;;;4647157;30;20051;-90
2022/11/27 10:32:42;;;;;;;67.90;19.88;;;5.50;99.90;;;;;;4667995;30;20058;-90
2022/11/27 10:36:41;;;;;;;74.72;23.05;;;5.20;99.90;;;;;;4842855;24;20048;-90
2022/11/27 10:45:55;;;;;;;71.53;22.48;;;5.40;99.90;;;;;;4933279;24;20046;-89
2022/11/27 11:00:29;;;;;;;70.65;23.13;;;5.50;99.90;;;;;;5605345;24;20125;-89
2022/11/27 13:11:59;;;;;;;56.38;17.75;;;5.70;99.90;;;;;;4725555;30;20060;-90
2022/11/27 14:35:26;;;;;;;32.80;8.87;;;5.60;99.90;;;;;;4788093;30;20062;-90
2022/11/27 15:55:56;;;;;;;35.53;11.75;;;5.40;99.90;;;;;;4924965;24;21374;31
2022/11/27 16:05:07;;;;;;;34.42;11.60;;;5.40;99.90;;;;;;4802511;29;20043;-77
2022/11/27 16:07:38;;;;;;;36.40;12.23;;;5.40;99.90;;;;;;4790252;29;20032;-77
2022/11/27 16:10:05;;;;;;;37.92;11.50;;;5.50;99.90;;;;;;4883588;24;20034;-77
2022/11/27 16:12:35;;;;;;;31.75;10.40;;;5.40;99.90;;;;;;5272146;24;20044;-78
2022/11/27 16:33:09;;;;;;;36.60;12.88;;;5.40;99.90;;;;;;5846469;24;20086;31
2022/11/27 16:35:38;;;;;;;38.17;11.93;;;5.40;99.90;;;;;;4757943;30;20036;-77
2022/11/27 16:38:06;;;;;;;39.95;12.25;;;5.40;99.90;;;;;;4737800;30;20094;-77
2022/11/27 16:40:33;;;;;;;39.83;11.63;;;5.40;99.90;;;;;;4732015;30;20121;-77
2022/11/27 16:43:01;;;;;;;40.92;13.52;;;5.40;99.90;;;;;;4737087;30;20136;-77
2022/11/27 16:45:29;;;;;;;50.28;14.00;;;5.20;99.90;;;;;;4735077;30;20059;-77
2022/11/27 16:47:57;;;;;;;36.75;12.30;;;5.40;99.90;;;;;;4733277;30;20056;-77
2022/11/27 16:50:25;;;;;;;57.47;16.95;;;5.40;99.90;;;;;;4744890;30;20060;-77
2022/11/27 16:52:53;;;;;;;41.00;13.48;;;5.40;99.90;;;;;;4733842;30;20053;-77
2022/11/27 16:55:23;;;;;;;46.60;14.57;;;5.40;99.90;;;;;;4732755;30;20044;-77
2022/11/27 16:57:51;;;;;;;40.53;12.43;;;5.40;99.90;;;;;;4717497;30;20142;-77
2022/11/27 17:00:18;;;;;;;39.55;12.35;;;5.40;99.90;;;;;;4733620;30;20075;-77
2022/11/27 17:02:46;;;;;;;41.17;13.43;;;5.30;99.90;;;;;;4733832;30;20052;-77
2022/11/27 17:05:14;;;;;;;37.00;11.32;;;5.30;99.90;;;;;;4734141;30;20044;-77
2022/11/27 17:07:41;;;;;;;37.40;11.30;;;5.40;99.90;;;;;;4735110;30;20615;-77
2022/11/27 17:10:10;;;;;;;34.30;10.02;;;5.30;99.90;;;;;;4726642;30;20052;-77
2022/11/27 17:12:37;;;;;;;38.30;11.23;;;5.40;99.90;;;;;;4741507;30;20062;-77
2022/11/27 17:15:04;;;;;;;35.95;9.93;;;5.40;99.90;;;;;;4731887;30;20320;-77
2022/11/27 17:17:35;;;;;;;28.13;10.82;;;5.40;99.90;;;;;;4732327;30;20052;-77
2022/11/27 17:20:07;;;;;;;28.55;11.35;;;5.40;99.90;;;;;;4721379;30;20505;-77
2022/11/27 17:22:34;;;;;;;29.48;11.40;;;5.40;99.90;;;;;;4767948;30;20092;-77
2022/11/27 17:25:04;;;;;;;36.72;12.07;;;5.30;99.90;;;;;;4737463;30;20100;-77
2022/11/27 17:27:33;;;;;;;37.15;11.20;;;5.40;99.90;;;;;;4750541;30;20051;-77
2022/11/27 17:30:01;;;;;;;35.30;10.95;;;6.80;99.90;;;;;;4750330;30;20055;-77
2022/11/27 17:32:29;;;;;;;33.67;10.23;;;5.30;99.90;;;;;;4738861;30;20477;-77
2022/11/27 17:34:56;;;;;;;33.13;10.77;;;5.30;99.90;;;;;;4742171;30;20060;-77
2022/11/27 17:37:24;;;;;;;32.40;10.43;;;6.50;99.90;;;;;;4753819;30;20044;-77
2022/11/27 17:39:51;;;;;;;42.58;12.15;;;5.40;99.90;;;;;;4766061;30;20082;-77
2022/11/27 17:42:19;;;;;;;35.47;11.82;;;5.40;99.90;;;;;;4751570;30;20105;-77
2022/11/27 17:44:49;;;;;;;38.70;12.57;;;5.40;99.90;;;;;;4742346;30;20135;-77
2022/11/27 17:47:17;;;;;;;59.92;20.17;;;5.40;99.90;;;;;;4750044;30;20130;-77
2022/11/27 17:49:45;;;;;;;56.10;18.70;;;5.30;99.90;;;;;;4746741;30;20060;-77
2022/11/27 17:52:13;;;;;;;51.78;17.75;;;5.30;99.90;;;;;;4764523;30;20040;-77
2022/11/27 17:54:41;;;;;;;58.72;22.85;;;5.40;99.90;;;;;;4748568;30;20097;-77
2022/11/27 17:57:09;;;;;;;53.60;19.20;;;5.40;99.90;;;;;;4726783;30;20135;-77
2022/11/27 17:59:37;;;;;;;50.72;17.38;;;5.30;99.90;;;;;;4744191;30;20051;-77
2022/11/27 18:02:06;;;;;;;53.88;18.02;;;5.40;99.90;;;;;;4749031;30;20076;-77
2022/11/27 18:04:34;;;;;;;48.05;13.82;;;5.30;99.90;;;;;;4751846;30;20124;-77
2022/11/27 18:07:02;;;;;;;40.95;12.13;;;5.30;99.90;;;;;;4745489;30;20051;-77
2022/11/27 18:09:31;;;;;;;44.15;14.18;;;5.30;99.90;;;;;;4748905;30;20044;-77
2022/11/27 18:11:58;;;;;;;41.53;11.65;;;5.30;99.90;;;;;;4763622;30;20420;-77
2022/11/27 18:14:28;;;;;;;39.47;12.02;;;5.30;99.90;;;;;;4746136;30;20052;-77
2022/11/27 18:16:57;;;;;;;47.03;12.88;;;5.30;99.90;;;;;;4763035;30;20060;-77
2022/11/27 18:19:24;;;;;;;42.30;13.18;;;5.30;99.90;;;;;;4735698;30;20471;-77
2022/11/27 18:21:51;;;;;;;42.75;11.75;;;5.30;99.90;;;;;;4732286;30;20508;-77
2022/11/27 18:24:18;;;;;;;37.72;10.73;;;5.30;99.90;;;;;;4733542;30;20067;-77
2022/11/27 18:26:54;;;;;;;41.47;13.07;;;5.30;99.90;;;;;;4751979;30;20051;-77
2022/11/27 18:29:39;;;;;;;47.10;14.07;;;5.30;99.90;;;;;;4767850;30;20100;-77
2022/11/27 18:32:08;;;;;;;47.50;12.63;;;5.30;99.90;;;;;;4734936;30;20059;-77
2022/11/27 18:34:37;;;;;;;44.78;15.25;;;5.30;99.90;;;;;;4729911;30;21495;-77
2022/11/27 18:37:04;;;;;;;54.95;15.18;;;5.30;99.90;;;;;;4763367;30;20067;-77
2022/11/27 18:39:34;;;;;;;60.40;17.17;;;5.30;99.90;;;;;;4749253;30;20458;-77
2022/11/27 18:42:03;;;;;;;52.40;17.17;;;5.30;99.90;;;;;;4735528;30;20417;-77
2022/11/27 18:44:33;;;;;;;60.38;19.27;;;5.30;99.90;;;;;;4761389;30;20044;-77
2022/11/27 18:47:11;;;;;;;55.60;19.08;;;5.30;99.90;;;;;;4764136;30;20129;-77
2022/11/27 18:49:39;;;;;;;56.25;18.90;;;5.30;99.90;;;;;;4734292;30;20043;-77
2022/11/27 18:52:07;;;;;;;64.72;19.48;;;5.30;99.90;;;;;;4748233;30;20183;-77
2022/11/27 18:54:36;;;;;;;62.22;18.45;;;5.20;99.90;;;;;;4746752;30;20052;-77
2022/11/27 18:57:05;;;;;;;59.67;17.55;;;5.20;99.90;;;;;;4750778;30;20417;-77
2022/11/27 18:59:37;;;;;;;61.15;16.38;;;5.30;99.90;;;;;;4746313;30;20121;-77
2022/11/27 19:02:05;;;;;;;55.97;16.90;;;5.20;99.90;;;;;;4731161;30;20048;-77
2022/11/27 19:04:36;;;;;;;66.55;19.10;;;5.20;99.90;;;;;;4749618;30;20083;-77
2022/11/27 19:07:04;;;;;;;53.95;17.85;;;5.20;99.90;;;;;;4737853;30;20061;-77
2022/11/27 19:09:32;;;;;;;60.88;18.38;;;5.20;99.90;;;;;;4766326;30;20505;-77
2022/11/27 19:11:59;;;;;;;58.97;17.02;;;5.20;99.90;;;;;;4758429;30;20109;-77
2022/11/27 19:14:26;;;;;;;65.85;20.15;;;5.20;99.90;;;;;;4730605;30;22101;-77
2022/11/27 19:16:55;;;;;;;72.60;23.42;;;5.20;99.90;;;;;;4750594;30;20051;-77
2022/11/27 19:19:23;;;;;;;67.82;18.42;;;5.20;99.90;;;;;;4735605;30;20051;-77
2022/11/27 19:22:11;;;;;;;50.97;16.60;;;5.20;99.90;;;;;;4742459;30;20098;-77
2022/11/27 19:24:39;;;;;;;47.47;15.90;;;5.10;99.90;;;;;;4750204;30;20044;-77
2022/11/27 19:27:08;;;;;;;59.65;17.95;;;5.20;99.90;;;;;;4749641;30;20059;-77
2022/11/27 19:29:35;;;;;;;58.20;17.17;;;5.20;99.90;;;;;;4734051;30;20048;-77
2022/11/27 19:32:03;;;;;;;55.42;17.15;;;5.20;99.90;;;;;;4744343;30;20131;-77
2022/11/27 19:34:31;;;;;;;54.25;18.20;;;5.10;99.90;;;;;;4748088;30;20568;-77
2022/11/27 19:36:58;;;;;;;52.22;16.73;;;5.10;99.90;;;;;;4763278;30;20052;-77
2022/11/27 19:39:27;;;;;;;53.45;17.00;;;5.20;99.90;;;;;;4742170;30;20052;-77
2022/11/27 19:41:56;;;;;;;54.53;17.52;;;5.60;99.90;;;;;;4749683;30;20112;-77
2022/11/27 19:44:24;;;;;;;51.28;15.73;;;5.20;99.90;;;;;;4746631;30;20047;-77
2022/11/27 19:46:51;;;;;;;56.50;16.73;;;5.20;99.90;;;;;;4734365;30;20054;-77
2022/11/27 19:49:18;;;;;;;57.10;15.32;;;5.20;99.90;;;;;;4745573;30;20050;-77
2022/11/27 19:51:46;;;;;;;54.13;15.80;;;5.10;99.90;;;;;;4749151;30;20143;-77
2022/11/27 19:54:17;;;;;;;53.38;15.68;;;5.20;99.90;;;;;;4746235;30;20083;-77
2022/11/27 19:56:45;;;;;;;52.90;16.95;;;5.20;99.90;;;;;;4748093;30;20056;-77
2022/11/27 19:59:13;;;;;;;61.90;19.27;;;5.20;99.90;;;;;;4732866;30;22557;-77
2022/11/27 20:01:51;;;;;;;58.60;18.50;;;5.20;99.90;;;;;;4742545;30;20044;-77
2022/11/27 20:04:24;;;;;;;46.75;16.20;;;5.20;99.90;;;;;;4733247;30;20381;-77
2022/11/27 20:06:52;;;;;;;60.70;18.05;;;5.20;99.90;;;;;;4748386;30;20148;-77
2022/11/27 20:09:19;;;;;;;63.35;18.80;;;5.20;99.90;;;;;;4732920;30;20054;-77
2022/11/27 20:11:47;;;;;;;49.72;15.95;;;5.20;99.90;;;;;;4749823;30;20101;-77
2022/11/27 20:14:14;;;;;;;53.83;15.80;;;5.20;99.90;;;;;;4743083;30;20059;-77
2022/11/27 20:16:43;;;;;;;45.83;16.83;;;5.20;99.90;;;;;;4743236;30;20040;-77